Time;durP1;ratioP1;P1;durP2;ratioP2;P2;SDS_P1;SDS_P2;PMS_P1;PMS_P2;Temp;Humidity;BMP_temperature;BMP_pressure;BME280_temperature;BME280_humidity;BME280_pressure;Samples;Min_cycle;Max_cycle;Signal;HPM_P1;HPM_P2
2022/05/10 00:01:58;;;;;;;173.13;166.00;;;12.50;99.90;;;;;;5006199;28;20517;-84
2022/05/10 00:04:27;;;;;;;170.70;163.90;;;12.50;99.90;;;;;;5006323;28;20472;-84
2022/05/10 00:07:07;;;;;;;171.77;164.97;;;12.60;99.90;;;;;;5005897;28;20533;-84
2022/05/10 00:09:34;;;;;;;191.47;183.87;;;12.60;99.90;;;;;;5005183;28;20450;-84
2022/05/10 00:12:05;;;;;;;162.63;155.60;;;12.70;99.90;;;;;;5005739;28;20478;-83
2022/05/10 00:17:28;;;;;;;175.00;167.57;;;12.70;99.90;;;;;;5003768;28;20442;-84
2022/05/10 00:20:02;;;;;;;160.07;153.37;;;12.80;99.90;;;;;;5005546;28;20545;-84
2022/05/10 00:22:29;;;;;;;168.67;161.50;;;12.80;99.90;;;;;;5006810;28;20430;-84
2022/05/10 00:25:06;;;;;;;173.10;165.47;;;12.80;99.90;;;;;;5006267;28;20438;-85
2022/05/10 00:27:42;;;;;;;177.97;170.30;;;12.90;99.90;;;;;;5005995;28;20537;-86
2022/05/10 00:30:16;;;;;;;148.20;142.10;;;12.90;99.90;;;;;;5004971;28;20462;-84
2022/05/10 00:32:52;;;;;;;163.20;156.70;;;12.80;99.90;;;;;;5005813;28;20532;-84
2022/05/10 00:35:24;;;;;;;152.30;146.00;;;12.90;99.90;;;;;;5006003;28;20955;-84
2022/05/10 00:37:52;;;;;;;161.27;154.27;;;12.90;99.90;;;;;;5006731;28;20478;-85
2022/05/10 00:40:36;;;;;;;161.17;154.77;;;12.80;99.90;;;;;;5004922;28;21022;-84
2022/05/10 00:46:30;;;;;;;;;;;;;;;;;;;;;
2022/05/10 00:49:14;;;;;;;275.60;265.07;;;12.60;99.90;;;;;;5004455;28;20460;-84
2022/05/10 00:51:51;;;;;;;265.27;255.10;;;12.60;99.90;;;;;;5005591;28;20470;-84
2022/05/10 00:54:34;;;;;;;301.70;289.70;;;12.60;99.90;;;;;;5005947;28;20454;-84
2022/05/10 00:57:18;;;;;;;277.67;266.17;;;12.60;99.90;;;;;;5006943;28;20431;-84
2022/05/10 01:00:00;;;;;;;338.07;324.47;;;12.50;99.90;;;;;;5003621;28;20482;-84
2022/05/10 01:02:42;;;;;;;330.13;315.97;;;12.50;99.90;;;;;;5003883;28;20450;-84
2022/05/10 01:05:23;;;;;;;310.00;297.63;;;12.40;99.90;;;;;;5004868;28;20462;-83
2022/05/10 01:08:01;;;;;;;348.57;334.67;;;12.40;99.90;;;;;;5005232;28;20446;-84
2022/05/10 01:10:35;;;;;;;331.83;318.23;;;12.20;99.90;;;;;;5003840;28;20486;-84
2022/05/10 01:13:15;;;;;;;362.87;347.87;;;12.30;99.90;;;;;;5004453;28;20922;-84
2022/05/10 01:15:58;;;;;;;378.53;363.07;;;12.30;99.90;;;;;;5003724;28;20445;-84
2022/05/10 01:18:33;;;;;;;390.43;374.60;;;12.30;99.90;;;;;;5004776;28;20445;-84
2022/05/10 01:21:06;;;;;;;345.00;331.60;;;12.30;99.90;;;;;;5004455;28;20477;-84
2022/05/10 01:24:21;;;;;;;323.53;311.23;;;12.20;99.90;;;;;;5003877;28;20528;-85
2022/05/10 01:27:07;;;;;;;501.60;479.33;;;12.10;99.90;;;;;;5004235;28;20481;-85
2022/05/10 01:30:05;;;;;;;;;;;;;;;;;;;;;
2022/05/10 01:35:57;;;;;;;455.20;434.97;;;12.20;99.90;;;;;;4956740;28;20435;-84
2022/05/10 01:38:34;;;;;;;517.50;494.20;;;12.10;99.90;;;;;;5003190;28;20434;-84
2022/05/10 01:41:08;;;;;;;573.17;545.17;;;12.00;99.90;;;;;;5003017;28;20478;-84
2022/05/10 01:43:41;;;;;;;439.70;421.00;;;12.20;99.90;;;;;;5003167;28;20434;-83
2022/05/10 01:46:20;;;;;;;508.80;486.10;;;12.10;99.90;;;;;;5004259;28;20454;-83
2022/05/10 01:48:53;;;;;;;506.37;483.03;;;12.00;99.90;;;;;;5003149;28;20481;-84
2022/05/10 01:51:25;;;;;;;486.97;464.80;;;12.10;99.90;;;;;;5003848;28;20501;-83
2022/05/10 01:54:00;;;;;;;509.53;486.77;;;12.10;99.90;;;;;;5003490;28;20454;-83
2022/05/10 01:56:41;;;;;;;494.30;472.43;;;12.10;99.90;;;;;;5003343;28;20458;-83
2022/05/10 01:59:11;;;;;;;435.63;417.63;;;12.10;99.90;;;;;;5003508;28;20457;-84
2022/05/10 02:01:44;;;;;;;530.90;507.13;;;12.00;99.90;;;;;;5003506;28;20474;-84
2022/05/10 02:04:40;;;;;;;;;;;;;;;;;;;;;
2022/05/10 02:07:13;;;;;;;494.10;473.00;;;12.00;99.90;;;;;;5002710;28;20456;-84
2022/05/10 02:09:49;;;;;;;482.80;462.40;;;11.90;99.90;;;;;;5002915;28;20474;-85
2022/05/10 02:12:24;;;;;;;467.07;447.33;;;11.90;99.90;;;;;;5003192;28;20462;-84
2022/05/10 02:14:59;;;;;;;473.13;452.43;;;11.80;99.90;;;;;;5002780;28;20465;-84
2022/05/10 02:17:52;;;;;;;529.43;506.37;;;11.80;99.90;;;;;;5004055;28;20505;-84
2022/05/10 02:20:31;;;;;;;575.33;549.57;;;11.70;99.90;;;;;;5002474;28;20529;-84
2022/05/10 02:23:03;;;;;;;624.33;594.57;;;11.70;99.90;;;;;;5003700;28;20853;-84
2022/05/10 02:25:45;;;;;;;634.00;603.83;;;11.70;99.90;;;;;;5003139;28;20482;-84
2022/05/10 02:28:22;;;;;;;605.33;576.63;;;11.60;99.90;;;;;;5006504;28;20449;-84
2022/05/10 02:30:58;;;;;;;590.47;562.57;;;11.60;99.90;;;;;;5006268;28;20477;-84
2022/05/10 02:33:32;;;;;;;618.83;588.43;;;11.60;99.90;;;;;;5007690;28;20460;-84
2022/05/10 02:36:01;;;;;;;638.10;606.30;;;11.60;99.90;;;;;;5006851;28;20540;-84
2022/05/10 02:38:33;;;;;;;646.07;614.33;;;11.60;99.90;;;;;;5006888;28;20454;-84
2022/05/10 02:41:05;;;;;;;661.63;628.63;;;11.60;99.90;;;;;;5006654;28;20473;-83
2022/05/10 02:43:42;;;;;;;717.93;679.57;;;11.60;99.90;;;;;;5006701;28;20538;-85
2022/05/10 02:46:38;;;;;;;729.33;690.37;;;11.60;99.90;;;;;;5006765;28;20461;-84
2022/05/10 02:51:55;;;;;;;751.03;709.87;;;11.50;99.90;;;;;;5004094;28;20850;-84
2022/05/10 02:54:22;;;;;;;743.53;702.43;;;11.60;99.90;;;;;;5006633;28;20536;-83
2022/05/10 02:56:52;;;;;;;740.20;699.27;;;11.50;99.90;;;;;;5005999;28;20458;-83
2022/05/10 02:59:26;;;;;;;734.53;695.60;;;11.50;99.90;;;;;;5005772;28;20513;-84
2022/05/10 03:02:00;;;;;;;706.10;670.17;;;11.50;99.90;;;;;;5006475;28;20454;-84
2022/05/10 03:04:38;;;;;;;738.13;700.10;;;11.50;99.90;;;;;;5006040;28;20460;-85
2022/05/10 03:07:11;;;;;;;783.50;740.40;;;11.40;99.90;;;;;;5005427;28;20453;-84
2022/05/10 03:09:40;;;;;;;794.20;749.77;;;11.20;99.90;;;;;;5005009;28;20466;-84
2022/05/10 03:12:17;;;;;;;817.53;769.87;;;11.20;99.90;;;;;;5004634;28;20509;-83
2022/05/10 03:14:50;;;;;;;800.70;754.90;;;11.10;99.90;;;;;;5006395;28;20948;-83
2022/05/10 03:17:25;;;;;;;830.10;782.60;;;11.10;99.90;;;;;;5004771;28;20438;-83
2022/05/10 03:19:54;;;;;;;849.23;800.07;;;11.00;99.90;;;;;;5004670;28;20509;-84
2022/05/10 03:22:21;;;;;;;859.50;809.53;;;11.00;99.90;;;;;;5005655;28;20477;-83
2022/05/10 03:24:47;;;;;;;865.70;815.60;;;11.00;99.90;;;;;;5005047;28;20525;-84
2022/05/10 03:27:16;;;;;;;848.70;798.27;;;10.90;99.90;;;;;;5005681;28;20545;-83
2022/05/10 03:29:49;;;;;;;867.90;815.93;;;10.90;99.90;;;;;;5005188;28;20485;-83
2022/05/10 03:32:16;;;;;;;867.03;815.47;;;10.90;99.90;;;;;;5005744;28;20484;-83
2022/05/10 03:34:57;;;;;;;869.40;818.17;;;10.90;99.90;;;;;;5005176;28;20450;-84
2022/05/10 03:37:38;;;;;;;866.60;815.60;;;10.90;99.90;;;;;;5005406;28;20458;-83
2022/05/10 03:40:12;;;;;;;854.80;805.50;;;10.90;99.90;;;;;;5005131;28;20481;-84
2022/05/10 03:42:47;;;;;;;877.60;826.10;;;10.80;99.90;;;;;;5007026;28;20446;-84
2022/05/10 03:45:18;;;;;;;886.33;833.33;;;10.70;99.90;;;;;;5005875;28;20442;-84
2022/05/10 03:48:18;;;;;;;890.63;837.47;;;10.80;99.90;;;;;;5005081;28;20446;-84
2022/05/10 03:51:03;;;;;;;882.53;827.93;;;10.70;99.90;;;;;;4906974;29;20513;-84
2022/05/10 03:53:36;;;;;;;880.37;824.30;;;10.80;99.90;;;;;;4980797;28;20509;-84
2022/05/10 03:56:07;;;;;;;865.73;811.47;;;10.90;99.90;;;;;;5006151;28;20458;-83
2022/05/10 03:58:40;;;;;;;866.37;813.07;;;10.90;99.90;;;;;;5006102;28;20524;-84
2022/05/10 04:01:07;;;;;;;842.17;791.43;;;10.90;99.90;;;;;;5005302;28;20854;-83
2022/05/10 04:03:34;;;;;;;842.63;792.53;;;10.90;99.90;;;;;;5005669;28;20461;-84
2022/05/10 04:06:01;;;;;;;833.17;783.73;;;10.90;99.90;;;;;;5004252;28;20518;-83
2022/05/10 04:08:28;;;;;;;846.23;793.80;;;10.80;99.90;;;;;;5003517;28;20525;-83
2022/05/10 04:11:01;;;;;;;851.83;800.40;;;10.90;99.90;;;;;;5003734;28;20481;-83
2022/05/10 04:13:28;;;;;;;848.20;797.03;;;10.90;99.90;;;;;;5003457;28;20489;-84
2022/05/10 04:15:55;;;;;;;835.17;784.90;;;11.00;99.90;;;;;;5003751;28;20466;-84
2022/05/10 04:18:22;;;;;;;827.07;778.07;;;10.90;99.90;;;;;;5003011;28;20457;-84
2022/05/10 04:20:58;;;;;;;836.50;787.00;;;10.90;99.90;;;;;;5003273;28;20482;-84
2022/05/10 04:23:48;;;;;;;831.20;780.50;;;10.90;99.90;;;;;;5003541;28;20458;-84
2022/05/10 04:26:18;;;;;;;777.73;733.73;;;10.90;99.90;;;;;;5003385;28;20457;-83
2022/05/10 04:28:46;;;;;;;737.03;697.13;;;10.90;99.90;;;;;;5002937;28;20493;-83
2022/05/10 04:31:27;;;;;;;740.73;701.10;;;10.90;99.90;;;;;;5003671;28;20474;-82
2022/05/10 04:34:08;;;;;;;728.13;688.63;;;11.00;99.90;;;;;;5003052;28;20453;-83
2022/05/10 04:36:44;;;;;;;762.63;719.70;;;11.00;99.90;;;;;;5003548;28;20446;-84
2022/05/10 04:39:20;;;;;;;798.70;752.43;;;11.10;99.90;;;;;;5002771;28;20481;-84
2022/05/10 04:41:52;;;;;;;785.70;738.63;;;11.10;99.90;;;;;;5002647;28;20465;-81
2022/05/10 04:44:41;;;;;;;782.17;736.00;;;11.20;99.90;;;;;;5003365;28;20466;-81
2022/05/10 04:47:12;;;;;;;759.90;716.63;;;11.30;99.90;;;;;;5002553;28;20545;-80
2022/05/10 04:50:06;;;;;;;741.50;699.90;;;11.50;99.90;;;;;;5000266;28;20504;-81
2022/05/10 04:52:56;;;;;;;705.60;667.30;;;11.60;99.90;;;;;;5003138;28;20978;-83
2022/05/10 04:55:23;;;;;;;665.97;631.03;;;11.70;99.90;;;;;;5002162;28;20474;-82
2022/05/10 04:57:51;;;;;;;682.30;646.60;;;11.70;99.90;;;;;;5003198;28;20497;-82
2022/05/10 05:00:19;;;;;;;590.73;561.63;;;11.80;99.90;;;;;;5001543;28;20505;-82
2022/05/10 05:03:05;;;;;;;577.87;549.97;;;11.90;99.90;;;;;;5002823;28;20486;-82
2022/05/10 05:05:32;;;;;;;510.70;486.67;;;12.00;99.90;;;;;;5003535;28;20545;-82
2022/05/10 05:08:02;;;;;;;515.77;492.30;;;12.20;99.90;;;;;;5002990;28;20540;-84
2022/05/10 05:10:29;;;;;;;487.07;465.03;;;12.30;99.90;;;;;;5002610;28;20474;-84
2022/05/10 05:13:05;;;;;;;403.43;386.20;;;12.40;99.90;;;;;;5002589;28;20486;-82
2022/05/10 05:15:32;;;;;;;386.30;369.80;;;12.50;99.90;;;;;;5002345;28;20814;-82
2022/05/10 05:17:59;;;;;;;302.87;290.67;;;12.60;99.90;;;;;;5001849;28;20500;-82
2022/05/10 05:20:25;;;;;;;275.93;265.27;;;12.80;99.90;;;;;;5001799;28;20541;-82
2022/05/10 05:22:52;;;;;;;238.90;229.97;;;12.80;99.90;;;;;;5002133;28;20450;-83
2022/05/10 05:25:19;;;;;;;197.33;190.10;;;13.00;99.90;;;;;;5002383;28;20462;-83
2022/05/10 05:27:46;;;;;;;145.93;139.67;;;13.20;99.90;;;;;;5003421;28;21010;-82
2022/05/10 05:30:15;;;;;;;106.80;102.10;;;13.30;99.90;;;;;;5002746;28;20474;-82
2022/05/10 05:32:41;;;;;;;74.73;70.90;;;13.40;99.90;;;;;;4997279;28;20540;-79
2022/05/10 05:35:13;;;;;;;54.60;51.30;;;13.60;99.90;;;;;;4997355;28;20490;-81
2022/05/10 05:37:40;;;;;;;46.87;44.07;;;13.70;99.90;;;;;;5000995;28;20454;-82
2022/05/10 05:40:09;;;;;;;38.30;36.00;;;13.80;99.90;;;;;;5014457;23;20464;-83
2022/05/10 05:42:37;;;;;;;28.53;26.33;;;13.90;99.90;;;;;;4993829;28;20443;-83
2022/05/10 05:45:06;;;;;;;24.83;22.60;;;14.00;99.90;;;;;;4994891;28;20966;-83
2022/05/10 05:47:34;;;;;;;20.53;18.63;;;14.20;99.90;;;;;;4995572;28;20458;-81
2022/05/10 05:50:01;;;;;;;20.67;18.67;;;14.40;99.90;;;;;;4990548;28;20562;-80
2022/05/10 05:52:28;;;;;;;18.10;16.07;;;14.50;99.90;;;;;;4994136;28;20482;-81
2022/05/10 05:54:55;;;;;;;16.03;14.37;;;14.60;99.90;;;;;;4995544;28;20469;-82
2022/05/10 05:57:22;;;;;;;17.97;15.90;;;14.80;99.90;;;;;;4994326;28;20446;-84
2022/05/10 05:59:53;;;;;;;16.43;12.83;;;15.00;99.90;;;;;;4996468;28;20462;-81
2022/05/10 06:02:21;;;;;;;15.00;12.67;;;15.10;99.70;;;;;;4995156;28;20946;-81
2022/05/10 06:04:50;;;;;;;14.57;12.33;;;15.30;98.50;;;;;;4991847;28;20462;-81
2022/05/10 06:07:16;;;;;;;14.60;12.53;;;15.40;97.40;;;;;;4993336;28;20463;-81
2022/05/10 06:09:44;;;;;;;15.03;12.30;;;15.30;95.70;;;;;;4993158;28;20455;-81
2022/05/10 06:12:13;;;;;;;12.93;11.03;;;15.50;95.40;;;;;;4992323;28;20521;-83
2022/05/10 06:14:41;;;;;;;17.00;13.10;;;15.50;95.20;;;;;;4994617;28;20463;-84
2022/05/10 06:17:08;;;;;;;13.17;11.20;;;15.60;94.40;;;;;;4992877;28;20461;-85
2022/05/10 06:19:38;;;;;;;18.00;12.43;;;15.70;93.80;;;;;;4990344;28;20458;-86
2022/05/10 06:22:07;;;;;;;13.77;11.17;;;15.90;94.90;;;;;;4994085;28;20452;-85
2022/05/10 06:24:35;;;;;;;15.30;11.83;;;16.20;95.20;;;;;;4994899;28;20456;-85
2022/05/10 06:27:02;;;;;;;14.07;11.10;;;16.50;94.50;;;;;;4993425;28;20456;-85
2022/05/10 06:29:29;;;;;;;18.40;11.17;;;16.70;93.70;;;;;;4992908;28;20462;-85
2022/05/10 06:31:55;;;;;;;11.93;10.63;;;16.70;93.40;;;;;;4993095;28;20482;-86
2022/05/10 06:34:22;;;;;;;15.57;12.17;;;16.90;92.10;;;;;;4994746;28;20450;-86
2022/05/10 06:36:49;;;;;;;12.77;11.20;;;17.00;91.20;;;;;;4991364;28;20463;-85
2022/05/10 06:39:17;;;;;;;12.80;9.73;;;17.10;90.70;;;;;;4992117;28;20451;-86
2022/05/10 06:41:44;;;;;;;14.77;9.33;;;17.40;89.90;;;;;;4992903;28;20485;-85
2022/05/10 06:44:11;;;;;;;15.70;9.90;;;17.60;89.30;;;;;;4992598;28;20459;-85
2022/05/10 06:46:38;;;;;;;14.43;10.90;;;17.80;88.70;;;;;;4993153;28;20709;-86
2022/05/10 06:49:05;;;;;;;15.77;9.93;;;18.20;84.40;;;;;;4989001;28;20902;-86
2022/05/10 06:51:33;;;;;;;20.30;10.57;;;18.50;81.90;;;;;;4991720;28;20473;-86
2022/05/10 06:54:00;;;;;;;12.90;10.07;;;18.80;80.30;;;;;;4991661;28;20489;-85
2022/05/10 06:56:29;;;;;;;16.37;10.57;;;19.10;75.70;;;;;;4995797;28;20461;-83
2022/05/10 06:58:55;;;;;;;15.05;10.90;;;19.50;69.80;;;;;;4994148;28;20460;-84
2022/05/10 07:01:22;;;;;;;13.93;9.70;;;19.50;66.50;;;;;;4995285;28;20225;-83
2022/05/10 07:03:50;;;;;;;12.63;9.70;;;19.50;64.50;;;;;;4995805;28;20467;-83
2022/05/10 07:06:19;;;;;;;11.37;9.53;;;19.80;64.00;;;;;;4995049;28;20429;-84
2022/05/10 07:08:46;;;;;;;11.63;7.67;;;20.00;61.30;;;;;;4994300;28;20457;-83
2022/05/10 07:11:13;;;;;;;14.53;9.07;;;20.20;61.30;;;;;;4994465;28;20487;-83
2022/05/10 07:13:42;;;;;;;14.00;9.20;;;20.40;57.70;;;;;;4997655;28;20486;-84
2022/05/10 07:16:09;;;;;;;13.07;9.90;;;20.60;56.00;;;;;;4997900;28;20956;-83
2022/05/10 07:18:36;;;;;;;12.20;10.23;;;21.00;54.20;;;;;;4996688;28;20461;-83
2022/05/10 07:21:03;;;;;;;13.13;9.27;;;21.10;53.40;;;;;;4997419;28;20476;-84
2022/05/10 07:23:31;;;;;;;10.80;8.63;;;21.40;50.20;;;;;;4996882;28;20828;-83
2022/05/10 07:25:59;;;;;;;9.73;7.90;;;21.60;49.90;;;;;;4997650;28;20465;-84
2022/05/10 07:28:29;;;;;;;13.03;8.03;;;21.60;49.10;;;;;;4997445;28;20457;-82
2022/05/10 07:30:58;;;;;;;11.37;8.40;;;21.60;47.40;;;;;;4996374;28;20570;-83
2022/05/10 07:33:25;;;;;;;10.50;8.30;;;21.90;47.80;;;;;;4996674;28;20479;-83
2022/05/10 07:38:37;;;;;;;13.53;9.00;;;21.90;46.80;;;;;;4996282;28;20436;-80
2022/05/10 07:41:04;;;;;;;12.63;6.90;;;22.00;45.10;;;;;;4997326;28;20479;-81
2022/05/10 07:43:34;;;;;;;13.80;8.27;;;22.00;41.70;;;;;;4996239;28;20451;-81
2022/05/10 07:46:03;;;;;;;10.80;7.63;;;22.00;41.50;;;;;;4996295;28;21013;-81
2022/05/10 07:48:29;;;;;;;10.50;7.73;;;22.10;42.50;;;;;;4993376;28;20508;-82
2022/05/10 07:50:56;;;;;;;11.47;8.07;;;22.10;42.60;;;;;;4995421;28;20479;-83
2022/05/10 07:53:23;;;;;;;16.50;8.00;;;21.90;41.50;;;;;;4995305;28;20485;-83
2022/05/10 07:55:50;;;;;;;13.90;7.63;;;21.90;39.70;;;;;;4995029;28;20467;-83
2022/05/10 07:58:17;;;;;;;9.30;7.07;;;21.90;39.20;;;;;;4994578;28;20546;-82
2022/05/10 08:00:44;;;;;;;11.30;6.90;;;22.00;40.60;;;;;;4994892;28;20471;-84
2022/05/10 08:03:16;;;;;;;9.77;7.37;;;22.20;37.40;;;;;;4995084;28;20460;-83
2022/05/10 08:05:43;;;;;;;9.83;5.37;;;22.50;34.50;;;;;;4994679;28;20464;-83
2022/05/10 08:08:11;;;;;;;9.43;6.10;;;22.50;33.20;;;;;;4994096;28;20540;-83
2022/05/10 08:10:39;;;;;;;11.83;6.30;;;22.90;32.90;;;;;;4994409;28;20571;-83
2022/05/10 08:13:11;;;;;;;9.47;5.57;;;23.30;33.60;;;;;;4994633;28;21068;-83
2022/05/10 08:15:38;;;;;;;8.60;6.53;;;23.70;29.70;;;;;;4994670;28;20927;-83
2022/05/10 08:18:05;;;;;;;8.73;5.73;;;23.90;29.10;;;;;;4994399;28;20461;-83
2022/05/10 08:20:34;;;;;;;10.20;5.60;;;24.30;30.00;;;;;;4994203;28;20481;-83
2022/05/10 08:23:01;;;;;;;10.80;5.87;;;24.80;27.50;;;;;;4994646;28;20446;-84
2022/05/10 08:25:28;;;;;;;9.33;5.10;;;24.50;21.90;;;;;;4995443;28;20461;-84
2022/05/10 08:27:55;;;;;;;8.77;4.60;;;24.30;22.80;;;;;;4994855;28;20454;-84
2022/05/10 08:30:21;;;;;;;8.30;5.27;;;24.70;24.40;;;;;;4994405;28;20496;-83
2022/05/10 08:32:48;;;;;;;11.67;5.77;;;24.90;23.20;;;;;;4994455;28;20849;-83
2022/05/10 08:35:15;;;;;;;9.83;4.67;;;25.10;23.30;;;;;;4994489;28;20462;-84
2022/05/10 08:37:43;;;;;;;7.43;4.70;;;25.80;23.70;;;;;;4994369;28;20967;-83
2022/05/10 08:40:18;;;;;;;8.63;4.97;;;26.50;20.60;;;;;;4993445;28;20498;-85
2022/05/10 08:42:49;;;;;;;8.70;4.57;;;26.30;14.90;;;;;;4995683;28;20449;-84
2022/05/10 08:45:18;;;;;;;7.03;4.50;;;26.40;10.70;;;;;;4996553;28;20557;-84
2022/05/10 08:47:47;;;;;;;10.40;6.07;;;26.30;12.00;;;;;;4996216;28;21038;-85
2022/05/10 08:50:15;;;;;;;11.73;5.37;;;26.60;10.70;;;;;;4992589;28;20482;-85
2022/05/10 08:52:47;;;;;;;7.13;3.87;;;27.50;10.20;;;;;;4997548;28;20457;-84
2022/05/10 08:55:27;;;;;;;7.20;4.57;;;27.60;7.70;;;;;;4996073;28;20428;-84
2022/05/10 08:57:58;;;;;;;8.47;4.43;;;27.70;7.80;;;;;;4997507;28;20453;-84
2022/05/10 09:00:31;;;;;;;8.03;4.37;;;27.40;3.60;;;;;;4995125;28;20485;-85
2022/05/10 09:02:59;;;;;;;14.63;4.60;;;28.10;5.20;;;;;;4996496;28;20868;-85
2022/05/10 09:05:33;;;;;;;7.60;4.50;;;28.00;4.60;;;;;;4994282;28;20461;-84
2022/05/10 09:08:07;;;;;;;9.00;4.83;;;28.00;5.00;;;;;;4996750;28;20438;-84
2022/05/10 09:10:41;;;;;;;7.57;4.30;;;27.20;4.60;;;;;;4995084;28;20488;-85
2022/05/10 09:13:11;;;;;;;11.20;5.63;;;26.80;6.20;;;;;;4993921;28;20485;-84
2022/05/10 09:15:40;;;;;;;8.03;4.70;;;26.70;6.00;;;;;;4994343;28;20460;-85
2022/05/10 09:18:19;;;;;;;9.67;4.27;;;27.00;9.10;;;;;;4994161;28;20454;-84
2022/05/10 09:20:53;;;;;;;9.60;4.67;;;27.20;4.40;;;;;;4994207;28;20474;-83
2022/05/10 09:23:32;;;;;;;7.93;4.03;;;27.40;5.90;;;;;;4995044;28;20460;-84
2022/05/10 09:26:00;;;;;;;7.30;4.17;;;27.10;1.00;;;;;;4994800;28;20549;-85
2022/05/10 09:28:39;;;;;;;11.03;4.37;;;27.10;1.40;;;;;;4994382;28;20469;-83
2022/05/10 09:36:53;;;;;;;14.20;3.80;;;28.90;1.00;;;;;;4995108;28;20833;-84
2022/05/10 09:39:30;;;;;;;7.33;3.70;;;28.40;1.00;;;;;;4992839;28;20801;-85
2022/05/10 09:41:57;;;;;;;7.30;4.20;;;28.50;1.00;;;;;;4996510;28;20456;-82
2022/05/10 09:44:26;;;;;;;8.98;3.70;;;28.30;1.00;;;;;;4994413;28;20456;-84
2022/05/10 09:47:11;;;;;;;6.17;3.40;;;27.90;1.00;;;;;;4994843;28;20202;-85
2022/05/10 09:49:39;;;;;;;8.07;3.93;;;28.00;1.00;;;;;;4992374;28;20465;-82
2022/05/10 09:52:16;;;;;;;6.77;3.20;;;28.20;1.00;;;;;;4996582;28;20458;-83
2022/05/10 09:54:46;;;;;;;5.93;2.60;;;28.20;1.00;;;;;;4998088;28;20512;-83
2022/05/10 09:57:26;;;;;;;5.30;2.87;;;28.10;1.00;;;;;;4997747;28;20436;-82
2022/05/10 09:59:53;;;;;;;8.00;3.00;;;28.20;1.00;;;;;;4997927;28;20431;-83
2022/05/10 10:02:29;;;;;;;5.10;3.00;;;28.00;1.00;;;;;;4997737;28;20469;-82
2022/05/10 10:04:56;;;;;;;7.60;3.93;;;27.90;1.00;;;;;;4997916;28;20450;-85
2022/05/10 10:07:25;;;;;;;7.23;3.30;;;28.10;1.00;;;;;;4997349;28;20458;-81
2022/05/10 10:09:55;;;;;;;5.60;3.50;;;29.00;1.00;;;;;;4994931;28;20464;-83
2022/05/10 10:12:33;;;;;;;11.80;3.90;;;29.90;1.00;;;;;;4996952;28;20429;-83
2022/05/10 10:15:00;;;;;;;6.10;3.60;;;30.20;1.00;;;;;;4995197;28;20448;-84
2022/05/10 10:17:30;;;;;;;6.10;3.63;;;29.20;1.00;;;;;;4994994;28;20458;-84
2022/05/10 10:20:02;;;;;;;6.53;2.97;;;29.30;1.00;;;;;;4994093;28;20462;-82
2022/05/10 10:22:38;;;;;;;6.60;3.27;;;28.70;1.00;;;;;;5001231;28;20436;-84
2022/05/10 10:25:18;;;;;;;7.97;3.73;;;28.20;1.00;;;;;;5001390;28;20513;-82
2022/05/10 10:27:49;;;;;;;5.83;2.87;;;28.00;1.00;;;;;;5000715;28;20461;-84
2022/05/10 10:30:23;;;;;;;6.53;3.17;;;27.70;1.00;;;;;;4998911;28;20470;-83
2022/05/10 10:32:55;;;;;;;6.57;3.10;;;27.70;1.00;;;;;;4998300;28;20436;-83
2022/05/10 10:35:33;;;;;;;9.30;4.00;;;27.30;1.00;;;;;;5001176;28;20446;-85
2022/05/10 10:38:07;;;;;;;7.23;2.87;;;27.40;1.00;;;;;;4999622;28;20445;-84
2022/05/10 10:40:39;;;;;;;8.80;3.37;;;27.70;1.00;;;;;;4995673;28;20484;-82
2022/05/10 10:43:14;;;;;;;7.63;3.07;;;27.70;1.00;;;;;;4993861;28;20477;-83
2022/05/10 10:45:43;;;;;;;6.10;3.23;;;27.60;1.00;;;;;;4995033;28;20453;-82
2022/05/10 10:48:21;;;;;;;7.40;3.57;;;27.20;1.00;;;;;;4995808;28;20932;-83
2022/05/10 10:50:48;;;;;;;5.97;3.10;;;27.40;1.00;;;;;;4999333;28;21017;-82
2022/05/10 10:53:15;;;;;;;7.17;2.87;;;27.40;1.00;;;;;;4998065;28;20449;-82
2022/05/10 10:55:57;;;;;;;7.60;3.10;;;27.70;1.00;;;;;;4998434;28;20462;-82
2022/05/10 10:58:32;;;;;;;5.50;2.67;;;27.30;1.00;;;;;;4998691;28;20465;-82
2022/05/10 11:01:13;;;;;;;5.67;2.80;;;27.30;1.00;;;;;;5000563;28;20473;-82
2022/05/10 11:03:51;;;;;;;5.63;2.80;;;26.90;1.00;;;;;;5001253;28;20460;-81
2022/05/10 11:06:25;;;;;;;6.03;3.10;;;27.20;1.00;;;;;;4998229;28;20453;-82
2022/05/10 11:09:33;;;;;;;6.03;3.10;;;27.00;1.00;;;;;;4997193;28;20476;-82
2022/05/10 11:12:12;;;;;;;7.00;3.00;;;27.00;1.00;;;;;;4997886;28;21002;-83
2022/05/10 11:14:55;;;;;;;7.37;3.47;;;26.90;1.00;;;;;;4997185;28;20473;-81
2022/05/10 11:17:29;;;;;;;7.27;2.93;;;26.90;1.00;;;;;;4998612;28;20449;-83
2022/05/10 11:20:20;;;;;;;6.50;2.93;;;27.30;1.00;;;;;;4998123;28;20457;-82
2022/05/10 11:22:54;;;;;;;6.33;2.93;;;27.80;1.00;;;;;;4999022;28;20450;-82
2022/05/10 11:25:33;;;;;;;6.00;3.60;;;27.90;1.00;;;;;;4998517;28;20943;-82
2022/05/10 11:28:19;;;;;;;6.30;3.30;;;28.00;1.00;;;;;;4999016;28;20453;-82
2022/05/10 11:30:56;;;;;;;6.80;2.80;;;27.70;1.00;;;;;;4998151;28;20469;-82
2022/05/10 11:33:37;;;;;;;5.60;3.03;;;27.60;1.00;;;;;;5000539;28;20500;-82
2022/05/10 11:36:15;;;;;;;8.07;2.87;;;27.90;1.00;;;;;;4998521;28;20839;-82
2022/05/10 11:39:11;;;;;;;6.10;2.43;;;28.50;1.00;;;;;;4996758;28;20974;-84
2022/05/10 11:41:42;;;;;;;6.00;3.40;;;28.10;1.00;;;;;;5018367;23;20491;-83
2022/05/10 11:44:45;;;;;;;5.83;3.00;;;28.10;1.00;;;;;;5021710;28;20456;-83
2022/05/10 11:47:54;;;;;;;6.43;3.50;;;28.80;1.00;;;;;;5020820;28;20461;-82
2022/05/10 11:50:37;;;;;;;6.30;3.20;;;29.10;1.00;;;;;;5021078;28;20432;-83
2022/05/10 11:53:51;;;;;;;7.63;3.40;;;29.30;1.00;;;;;;5021217;28;20825;-83
2022/05/10 11:56:18;;;;;;;9.43;3.60;;;29.80;1.00;;;;;;4960602;29;20963;-83
2022/05/10 11:58:46;;;;;;;7.70;3.57;;;30.60;1.00;;;;;;5005719;28;20464;-83
2022/05/10 12:01:14;;;;;;;8.10;3.60;;;31.70;1.00;;;;;;5021105;28;20473;-83
2022/05/10 12:03:58;;;;;;;9.20;3.27;;;31.60;1.00;;;;;;5021001;28;20456;-83
2022/05/10 12:06:39;;;;;;;6.60;3.43;;;31.80;1.00;;;;;;5020752;28;20463;-84
2022/05/10 12:09:07;;;;;;;5.80;3.33;;;32.20;1.00;;;;;;5020939;28;20457;-84
2022/05/10 12:11:39;;;;;;;8.27;4.33;;;32.30;1.00;;;;;;5021863;28;20535;-83
2022/05/10 12:23:07;;;;;;;10.40;3.90;;;31.50;1.00;;;;;;5016531;28;20827;-86
2022/05/10 12:25:54;;;;;;;6.03;3.37;;;31.20;1.00;;;;;;5016147;28;20481;-86
2022/05/10 12:28:53;;;;;;;6.17;3.20;;;31.10;1.00;;;;;;5015969;28;20467;-85
2022/05/10 12:32:08;;;;;;;8.40;3.70;;;30.10;1.00;;;;;;4984315;28;21064;-86
2022/05/10 12:34:52;;;;;;;7.27;3.67;;;29.90;1.00;;;;;;4965273;28;20458;-85
2022/05/10 12:38:01;;;;;;;6.27;3.47;;;30.20;1.00;;;;;;4995858;28;20489;-85
2022/05/10 12:41:01;;;;;;;7.50;3.80;;;31.00;1.00;;;;;;4994927;28;20470;-86
2022/05/10 12:44:17;;;;;;;5.70;3.20;;;30.90;1.00;;;;;;4995360;28;20536;-86
2022/05/10 12:47:11;;;;;;;5.80;3.10;;;29.90;1.00;;;;;;4995470;28;20487;-85
2022/05/10 12:49:59;;;;;;;5.90;3.47;;;30.00;1.00;;;;;;4995100;28;20482;-86
2022/05/10 12:52:47;;;;;;;11.10;3.60;;;30.40;1.00;;;;;;5002763;28;20482;-84
2022/05/10 12:55:45;;;;;;;7.40;3.97;;;30.60;1.00;;;;;;5004056;28;21101;-84
2022/05/10 12:58:23;;;;;;;7.23;3.80;;;31.40;1.00;;;;;;5001531;28;21037;-84
2022/05/10 13:00:54;;;;;;;13.00;4.23;;;31.00;1.00;;;;;;5000974;28;20488;-83
2022/05/10 13:03:24;;;;;;;9.80;3.67;;;31.10;1.00;;;;;;5001805;28;20458;-83
2022/05/10 13:06:10;;;;;;;7.53;3.30;;;31.30;1.00;;;;;;5003215;28;20472;-84
2022/05/10 13:09:02;;;;;;;7.60;3.10;;;31.60;1.00;;;;;;5001719;28;20461;-83
2022/05/10 13:11:42;;;;;;;7.40;3.53;;;31.10;1.00;;;;;;5000610;28;20481;-83
2022/05/10 13:14:09;;;;;;;7.63;4.10;;;30.00;1.00;;;;;;5001665;28;20449;-83
2022/05/10 13:16:36;;;;;;;6.70;4.20;;;30.00;1.00;;;;;;5001322;28;20428;-83
2022/05/10 13:19:04;;;;;;;8.40;4.03;;;29.80;1.00;;;;;;4999941;28;20464;-83
2022/05/10 13:21:35;;;;;;;5.30;2.80;;;29.80;1.00;;;;;;5001038;28;20506;-83
2022/05/10 13:24:11;;;;;;;7.17;3.93;;;29.40;1.00;;;;;;5000823;28;20490;-83
2022/05/10 13:26:56;;;;;;;6.00;3.50;;;29.50;1.00;;;;;;5000599;28;20461;-83
2022/05/10 13:29:41;;;;;;;7.20;3.67;;;29.10;1.00;;;;;;4999306;28;20922;-83
2022/05/10 13:32:11;;;;;;;8.87;4.13;;;28.90;1.00;;;;;;5001587;28;20516;-83
2022/05/10 13:34:49;;;;;;;6.80;3.83;;;29.20;1.00;;;;;;5001304;28;20462;-84
2022/05/10 13:37:26;;;;;;;5.47;3.47;;;28.70;1.00;;;;;;5000011;28;20432;-85
2022/05/10 13:39:53;;;;;;;8.43;4.37;;;28.70;1.00;;;;;;4996475;28;20445;-85
2022/05/10 13:42:40;;;;;;;8.40;4.60;;;28.80;1.00;;;;;;4995839;28;20846;-85